Time;durP1;ratioP1;P1;durP2;ratioP2;P2;SDS_P1;SDS_P2;PMS_P1;PMS_P2;Temp;Humidity;BMP_temperature;BMP_pressure;BME280_temperature;BME280_humidity;BME280_pressure;Samples;Min_cycle;Max_cycle;Signal;HPM_P1;HPM_P2
2021/01/02 00:04:35;;;;;;;45.40;28.63;;;5.70;99.90;;;;;;4993477;28;20180;-82
2021/01/02 00:07:31;;;;;;;42.73;27.87;;;5.60;99.90;;;;;;4993625;28;20414;-82
2021/01/02 00:10:00;;;;;;;43.23;27.83;;;5.70;99.90;;;;;;4993581;28;20471;-84
2021/01/02 00:12:54;;;;;;;44.17;28.70;;;5.70;99.90;;;;;;4993674;28;20427;-85
2021/01/02 00:15:45;;;;;;;46.27;26.50;;;5.70;99.90;;;;;;4993951;28;20471;-88
2021/01/02 00:18:31;;;;;;;42.00;27.03;;;5.70;99.90;;;;;;5001924;28;20405;-89
2021/01/02 00:24:34;;;;;;;49.53;25.90;;;5.80;99.90;;;;;;4997033;28;20502;-81
2021/01/02 00:27:08;;;;;;;41.70;24.07;;;5.80;99.90;;;;;;4997052;28;20416;-81
2021/01/02 00:29:57;;;;;;;44.47;28.40;;;5.80;99.90;;;;;;4997678;28;20528;-81
2021/01/02 00:33:09;;;;;;;45.07;28.07;;;5.80;99.90;;;;;;4996424;28;20464;-81
2021/01/02 00:35:37;;;;;;;43.97;25.60;;;5.80;99.90;;;;;;4996854;28;20496;-81
2021/01/02 00:38:06;;;;;;;48.10;28.47;;;5.90;99.90;;;;;;4996783;28;20438;-82
2021/01/02 00:40:33;;;;;;;53.50;34.40;;;5.90;99.90;;;;;;4995903;28;20417;-79
2021/01/02 00:42:59;;;;;;;49.10;30.40;;;5.90;99.90;;;;;;4996615;28;20427;-88
2021/01/02 00:45:27;;;;;;;47.93;29.00;;;5.80;99.90;;;;;;4996740;28;20424;-84
2021/01/02 00:47:53;;;;;;;42.53;28.53;;;5.80;99.90;;;;;;4996570;28;20594;-77
2021/01/02 00:50:20;;;;;;;49.13;28.40;;;5.80;99.90;;;;;;4996122;28;20571;-77
2021/01/02 00:52:46;;;;;;;44.93;28.57;;;5.80;99.90;;;;;;4996496;28;20423;-82
2021/01/02 00:55:31;;;;;;;46.33;28.77;;;5.80;99.90;;;;;;4996114;28;20436;-82
2021/01/02 00:58:13;;;;;;;50.53;30.10;;;5.80;99.90;;;;;;4996388;28;20279;-82
2021/01/02 01:04:42;;;;;;;52.00;26.43;;;5.70;99.90;;;;;;4996015;28;20455;-87
2021/01/02 01:07:16;;;;;;;54.40;28.43;;;5.70;99.90;;;;;;4996336;28;20396;-86
2021/01/02 01:09:44;;;;;;;52.37;30.83;;;5.70;99.90;;;;;;4995949;28;20467;-86
2021/01/02 01:12:17;;;;;;;44.53;28.10;;;5.60;99.90;;;;;;4996318;28;20507;-87
2021/01/02 01:14:44;;;;;;;51.03;29.23;;;5.60;99.90;;;;;;4995928;28;20900;-87
2021/01/02 01:17:16;;;;;;;50.77;28.77;;;5.60;99.90;;;;;;4995983;28;20443;-86
2021/01/02 01:19:45;;;;;;;46.67;28.63;;;5.70;99.90;;;;;;4996097;28;20468;-86
2021/01/02 01:22:14;;;;;;;43.67;28.77;;;5.80;99.90;;;;;;4996071;28;20518;-80
2021/01/02 01:24:48;;;;;;;47.63;29.70;;;5.80;99.90;;;;;;4995983;28;20461;-79
2021/01/02 01:27:19;;;;;;;45.30;27.37;;;5.60;99.90;;;;;;4996040;28;20773;-79
2021/01/02 01:29:47;;;;;;;55.33;30.57;;;5.70;99.90;;;;;;4995022;28;20471;-80
2021/01/02 01:32:19;;;;;;;46.87;26.47;;;5.70;99.90;;;;;;4995401;28;20456;-81
2021/01/02 01:34:46;;;;;;;50.43;28.60;;;5.70;99.90;;;;;;4995900;28;20419;-81
2021/01/02 01:37:15;;;;;;;50.40;29.33;;;5.70;99.90;;;;;;4996287;28;20420;-77
2021/01/02 01:39:51;;;;;;;47.70;28.83;;;5.60;99.90;;;;;;4995786;28;20433;-77
2021/01/02 01:42:18;;;;;;;44.00;26.97;;;5.70;99.90;;;;;;4995511;28;20760;-78
2021/01/02 01:44:54;;;;;;;47.20;28.43;;;5.70;99.90;;;;;;4995608;28;20788;-79
2021/01/02 01:47:38;;;;;;;44.63;27.07;;;5.70;99.90;;;;;;4995690;28;20416;-79
2021/01/02 01:54:11;;;;;;;46.90;26.80;;;5.70;99.90;;;;;;4995286;28;20418;-79
2021/01/02 01:56:48;;;;;;;41.80;25.53;;;5.70;99.90;;;;;;4972080;28;20446;-79
2021/01/02 01:59:17;;;;;;;49.10;28.80;;;5.70;99.90;;;;;;4995230;28;20409;-79
2021/01/02 02:01:47;;;;;;;47.47;28.13;;;5.80;99.90;;;;;;4995267;28;20423;-79
2021/01/02 02:04:31;;;;;;;46.50;28.33;;;5.80;99.90;;;;;;4995096;28;20423;-79
2021/01/02 02:07:01;;;;;;;44.17;26.40;;;5.70;99.90;;;;;;4995214;28;20452;-78
2021/01/02 06:30:19;;;;;;;25.83;17.63;;;5.40;99.90;;;;;;6086944;23;21419;-76
2021/01/02 06:32:47;;;;;;;28.47;19.67;;;5.40;99.90;;;;;;4915903;29;20996;-77
2021/01/02 06:35:12;;;;;;;32.13;20.60;;;5.40;99.90;;;;;;4917475;29;20470;-74
2021/01/02 06:37:47;;;;;;;31.17;18.90;;;5.40;99.90;;;;;;4917471;29;20442;-74
2021/01/02 06:40:26;;;;;;;29.97;18.37;;;5.40;99.90;;;;;;4917370;29;20219;-75
2021/01/02 06:42:59;;;;;;;32.70;20.30;;;5.50;99.90;;;;;;4917407;29;20450;-74
2021/01/02 06:45:41;;;;;;;41.43;19.00;;;5.50;99.90;;;;;;4917451;29;20844;-80
2021/01/02 06:48:15;;;;;;;29.23;17.60;;;5.50;99.90;;;;;;4917246;29;20506;-79
2021/01/02 06:50:44;;;;;;;28.97;18.80;;;5.50;99.90;;;;;;4917218;29;20510;-79
2021/01/02 06:53:30;;;;;;;30.33;19.03;;;5.50;99.90;;;;;;4917229;29;20476;-79
2021/01/02 06:55:58;;;;;;;28.55;20.40;;;5.50;99.90;;;;;;4916721;29;20450;-76
2021/01/02 06:58:24;;;;;;;30.93;18.23;;;5.60;99.90;;;;;;4917342;29;20184;-76
2021/01/02 07:00:50;;;;;;;30.47;19.17;;;5.60;99.90;;;;;;4917120;29;20435;-77
2021/01/02 07:03:41;;;;;;;31.00;19.03;;;5.50;99.90;;;;;;4917117;29;20776;-79
2021/01/02 07:06:21;;;;;;;30.80;18.77;;;5.60;99.90;;;;;;4917089;29;20189;-79
2021/01/02 07:09:02;;;;;;;26.97;19.20;;;5.50;99.90;;;;;;4917055;29;20805;-79
2021/01/02 07:11:40;;;;;;;32.50;17.57;;;5.50;99.90;;;;;;4917174;29;20448;-75
2021/01/02 07:14:08;;;;;;;26.47;17.37;;;5.50;99.90;;;;;;4916973;29;20454;-76
2021/01/02 07:17:02;;;;;;;34.90;18.77;;;5.50;99.90;;;;;;4916986;29;20499;-76
2021/01/02 07:19:49;;;;;;;23.23;16.23;;;5.50;99.90;;;;;;4915489;29;20841;-77
2021/01/02 07:22:18;;;;;;;26.67;17.63;;;5.50;99.90;;;;;;4916876;29;20504;-82
2021/01/02 07:24:53;;;;;;;24.43;17.03;;;5.60;99.90;;;;;;4916900;29;20424;-76
2021/01/02 07:27:30;;;;;;;26.93;17.77;;;5.60;99.90;;;;;;4917424;29;20450;-77
2021/01/02 07:33:17;;;;;;;29.93;18.57;;;5.50;99.90;;;;;;5005175;28;20824;-84
2021/01/02 07:39:06;;;;;;;25.30;17.00;;;5.50;99.90;;;;;;4997757;28;20215;-83
2021/01/02 07:41:34;;;;;;;29.17;18.90;;;5.60;99.90;;;;;;4997843;28;20505;-83
2021/01/02 07:47:22;;;;;;;29.07;17.57;;;5.70;99.90;;;;;;4997512;28;20981;-81
2021/01/02 07:49:48;;;;;;;26.50;16.70;;;5.70;99.90;;;;;;4997571;28;20683;-79
2021/01/02 07:52:14;;;;;;;28.73;18.23;;;5.70;99.90;;;;;;4997680;28;20561;-80
2021/01/02 07:54:39;;;;;;;27.13;16.90;;;5.60;99.90;;;;;;4997441;28;20188;-76
2021/01/02 07:57:07;;;;;;;28.77;17.90;;;5.80;99.90;;;;;;4997744;28;20183;-79
2021/01/02 07:59:35;;;;;;;26.10;17.40;;;5.70;99.90;;;;;;4997519;28;20182;-83
2021/01/02 08:02:09;;;;;;;28.03;18.57;;;5.60;99.90;;;;;;4997457;28;20431;-81
2021/01/02 08:04:35;;;;;;;24.40;15.47;;;5.70;99.90;;;;;;4997519;28;20929;-76
2021/01/02 08:07:03;;;;;;;28.43;18.37;;;5.80;99.90;;;;;;4997561;28;20433;-78
2021/01/02 08:12:56;;;;;;;26.17;16.67;;;5.70;99.90;;;;;;4997070;28;20774;-75
2021/01/02 08:15:34;;;;;;;28.50;17.80;;;5.70;99.90;;;;;;4997285;28;20423;-80
2021/01/02 08:18:08;;;;;;;29.60;18.43;;;5.60;99.90;;;;;;4997153;28;20447;-75
2021/01/02 08:20:34;;;;;;;31.53;18.30;;;5.50;99.90;;;;;;4997956;28;20426;-76
2021/01/02 08:23:10;;;;;;;26.60;18.30;;;5.50;99.90;;;;;;4996829;28;20435;-76
2021/01/02 08:25:37;;;;;;;33.17;17.67;;;5.50;99.90;;;;;;4997074;28;20423;-76
2021/01/02 08:28:03;;;;;;;31.90;19.07;;;5.50;99.90;;;;;;4996905;28;20439;-76
2021/01/02 08:30:28;;;;;;;30.53;18.53;;;5.50;99.90;;;;;;4996495;28;20489;-75
2021/01/02 08:32:56;;;;;;;31.13;17.90;;;5.40;99.90;;;;;;4996790;28;20420;-75
2021/01/02 08:35:35;;;;;;;33.70;18.97;;;5.40;99.90;;;;;;4996892;28;20181;-75
2021/01/02 08:41:22;;;;;;;32.47;18.80;;;5.50;99.90;;;;;;4996616;28;20935;-75
2021/01/02 08:43:50;;;;;;;31.37;20.40;;;5.50;99.90;;;;;;4996255;28;20946;-75
2021/01/02 08:46:23;;;;;;;28.83;19.20;;;5.60;99.90;;;;;;4996188;28;20953;-74
2021/01/02 08:48:49;;;;;;;29.23;18.87;;;5.60;99.90;;;;;;4996627;28;20416;-75
2021/01/02 08:54:36;;;;;;;26.03;16.60;;;5.60;99.90;;;;;;4996298;28;20418;-85
2021/01/02 09:00:30;;;;;;;28.00;18.13;;;5.70;99.90;;;;;;4996176;28;20188;-79
2021/01/02 09:02:56;;;;;;;32.60;19.30;;;5.70;99.90;;;;;;4994823;28;20436;-77
2021/01/02 09:05:37;;;;;;;32.33;21.00;;;5.70;99.90;;;;;;4996357;28;20434;-76
2021/01/02 09:08:08;;;;;;;33.37;19.80;;;5.70;99.90;;;;;;4996197;28;20675;-77
2021/01/02 09:10:33;;;;;;;32.57;19.57;;;5.70;99.90;;;;;;4996144;28;20510;-75
2021/01/02 09:13:09;;;;;;;40.03;20.73;;;5.60;99.90;;;;;;4996139;28;20431;-78
2021/01/02 09:15:48;;;;;;;35.13;20.33;;;5.70;99.90;;;;;;4996166;28;20176;-77
2021/01/02 09:18:33;;;;;;;29.70;19.60;;;5.70;99.90;;;;;;4995980;28;20423;-75
2021/01/02 09:24:22;;;;;;;32.77;18.73;;;5.70;99.90;;;;;;4995675;28;20779;-82
2021/01/02 09:26:48;;;;;;;35.03;20.47;;;5.80;99.90;;;;;;4996214;28;20482;-79
2021/01/02 09:32:54;;;;;;;35.43;21.43;;;5.80;99.90;;;;;;4987225;28;20972;-73
2021/01/02 09:35:20;;;;;;;30.87;19.50;;;5.70;99.90;;;;;;4995329;28;20519;-74
2021/01/02 09:37:45;;;;;;;34.90;22.90;;;5.70;99.90;;;;;;4995935;28;20184;-78
2021/01/02 09:40:13;;;;;;;38.53;23.40;;;5.80;99.90;;;;;;4995410;28;20219;-77
2021/01/02 09:46:00;;;;;;;35.97;22.17;;;5.90;99.90;;;;;;4995499;28;20275;-76
2021/01/02 09:48:26;;;;;;;35.33;21.90;;;5.90;99.90;;;;;;4995268;28;20527;-76
2021/01/02 09:54:13;;;;;;;35.90;22.67;;;5.90;99.90;;;;;;4995497;28;20575;-79
2021/01/02 09:56:44;;;;;;;39.50;20.20;;;6.00;99.90;;;;;;4993785;28;20432;-77
2021/01/02 09:59:09;;;;;;;35.57;21.50;;;6.30;99.90;;;;;;4994922;28;20251;-78
2021/01/02 10:01:35;;;;;;;29.77;19.83;;;6.40;99.90;;;;;;4994847;28;20913;-78
2021/01/02 10:04:00;;;;;;;35.00;21.60;;;6.50;99.90;;;;;;4995243;28;20173;-80
2021/01/02 10:06:26;;;;;;;32.07;19.00;;;6.60;99.90;;;;;;4995260;28;20169;-79
2021/01/02 10:08:51;;;;;;;36.17;22.57;;;6.60;99.90;;;;;;4994927;28;20263;-78
2021/01/02 10:14:46;;;;;;;34.27;20.43;;;6.40;99.90;;;;;;4995518;28;20171;-75
2021/01/02 10:17:12;;;;;;;31.23;20.13;;;6.20;99.90;;;;;;4995499;28;20424;-79
2021/01/02 10:19:43;;;;;;;34.40;21.73;;;6.20;99.90;;;;;;4995615;28;20436;-78
2021/01/02 10:22:09;;;;;;;35.00;21.87;;;6.30;99.90;;;;;;4994807;28;20427;-77
2021/01/02 10:24:35;;;;;;;38.37;21.90;;;6.30;99.90;;;;;;4995095;28;20841;-77
2021/01/02 10:27:01;;;;;;;30.37;20.03;;;6.20;99.90;;;;;;4994923;28;20424;-77
2021/01/02 10:29:27;;;;;;;34.30;20.87;;;6.20;99.90;;;;;;4994850;28;20464;-78
2021/01/02 10:31:56;;;;;;;35.70;21.23;;;6.00;99.90;;;;;;4994904;28;20467;-77
2021/01/02 10:34:22;;;;;;;39.17;21.57;;;6.00;99.90;;;;;;4994863;28;20173;-76
2021/01/02 10:36:47;;;;;;;34.73;20.00;;;6.00;99.90;;;;;;4994362;28;20435;-76
2021/01/02 10:39:13;;;;;;;32.50;19.70;;;6.00;99.90;;;;;;4994758;28;20644;-76
2021/01/02 10:41:39;;;;;;;35.33;20.43;;;6.10;99.90;;;;;;4994637;28;20640;-76
2021/01/02 10:44:05;;;;;;;28.93;19.80;;;6.00;99.90;;;;;;4995236;28;20177;-76
2021/01/02 10:46:31;;;;;;;32.83;21.03;;;6.00;99.90;;;;;;4995020;28;20498;-75
2021/01/02 10:48:56;;;;;;;31.90;20.10;;;6.00;99.90;;;;;;4994376;28;20428;-77
2021/01/02 10:54:45;;;;;;;35.53;20.07;;;6.10;99.90;;;;;;4994183;28;20223;-77
2021/01/02 10:57:11;;;;;;;42.23;19.80;;;6.10;99.90;;;;;;4994457;28;20775;-76
2021/01/02 10:59:37;;;;;;;36.43;20.63;;;6.10;99.90;;;;;;4994042;28;20924;-76
2021/01/02 11:02:02;;;;;;;33.93;21.60;;;6.10;99.90;;;;;;4994184;28;20563;-77
2021/01/02 11:04:28;;;;;;;33.20;19.80;;;6.20;99.90;;;;;;4994313;28;20203;-77
2021/01/02 11:06:55;;;;;;;34.43;20.80;;;6.10;99.90;;;;;;4994231;28;20187;-76
2021/01/02 11:09:23;;;;;;;31.40;18.53;;;6.10;99.90;;;;;;4994209;28;20235;-75
2021/01/02 11:11:52;;;;;;;33.93;18.77;;;6.10;99.90;;;;;;4994217;28;20431;-75
2021/01/02 11:14:17;;;;;;;33.67;19.03;;;6.10;99.90;;;;;;4994308;28;20435;-75
2021/01/02 11:16:44;;;;;;;31.00;17.80;;;6.20;99.90;;;;;;4993864;28;20429;-76
2021/01/02 11:22:32;;;;;;;42.03;19.63;;;6.20;99.90;;;;;;4994101;28;20980;-76
2021/01/02 11:28:19;;;;;;;28.67;19.87;;;6.20;99.90;;;;;;4994009;28;20212;-75
2021/01/02 11:30:45;;;;;;;35.70;20.00;;;6.10;99.90;;;;;;4994177;28;20822;-76
2021/01/02 11:33:10;;;;;;;37.53;20.30;;;6.20;99.90;;;;;;4994035;28;20236;-74
2021/01/02 11:35:36;;;;;;;31.30;18.73;;;6.30;99.90;;;;;;4993889;28;20651;-75
2021/01/02 11:38:01;;;;;;;34.50;19.97;;;6.40;99.90;;;;;;4994173;28;20218;-76
2021/01/02 11:43:49;;;;;;;32.90;19.97;;;6.30;99.90;;;;;;4994280;28;20168;-77
2021/01/02 11:49:36;;;;;;;34.13;19.57;;;6.20;99.90;;;;;;4994000;28;20554;-75
2021/01/02 11:52:05;;;;;;;33.17;19.17;;;6.30;99.90;;;;;;4993769;28;20436;-74
2021/01/02 11:54:32;;;;;;;34.10;19.33;;;6.30;99.90;;;;;;4994148;28;20264;-76
2021/01/02 11:56:58;;;;;;;38.97;21.83;;;6.30;99.90;;;;;;4993559;28;20584;-75
2021/01/02 11:59:24;;;;;;;34.30;19.77;;;6.30;99.90;;;;;;4993648;28;20436;-77
2021/01/02 12:01:52;;;;;;;34.40;19.87;;;6.30;99.90;;;;;;4993693;28;20432;-74
2021/01/02 12:04:22;;;;;;;33.90;19.97;;;6.40;99.90;;;;;;4994138;28;20231;-71
2021/01/02 12:06:48;;;;;;;31.17;19.50;;;6.40;99.90;;;;;;4993850;28;20404;-75
2021/01/02 12:12:35;;;;;;;31.03;18.37;;;6.40;99.90;;;;;;4993685;28;20223;-81
2021/01/02 12:15:00;;;;;;;32.43;19.30;;;6.40;99.90;;;;;;4995395;28;20443;-73
2021/01/02 12:17:26;;;;;;;32.20;19.27;;;6.40;99.90;;;;;;4997367;28;20219;-75
2021/01/02 12:19:51;;;;;;;31.00;17.50;;;6.50;99.90;;;;;;4997397;28;20256;-73
2021/01/02 12:22:17;;;;;;;27.73;17.10;;;6.50;99.90;;;;;;4997055;28;20738;-72
2021/01/02 12:24:43;;;;;;;34.10;19.40;;;6.50;99.90;;;;;;4997221;28;20230;-76
2021/01/02 12:27:10;;;;;;;31.90;18.20;;;6.60;99.90;;;;;;4997144;28;20183;-72
2021/01/02 12:36:35;;;;;;;25.93;15.67;;;6.30;99.90;;;;;;4996564;28;20434;-69
2021/01/02 12:39:02;;;;;;;26.30;15.67;;;6.40;99.90;;;;;;4996923;28;20549;-75
2021/01/02 12:41:28;;;;;;;26.30;15.87;;;6.50;99.90;;;;;;4996628;28;20915;-74
2021/01/02 12:43:53;;;;;;;26.37;15.00;;;6.60;99.90;;;;;;4996847;28;20432;-76
2021/01/02 12:49:43;;;;;;;24.73;16.90;;;6.60;99.90;;;;;;4996523;28;20200;-74
2021/01/02 12:52:09;;;;;;;30.30;17.07;;;6.60;99.90;;;;;;4996701;28;20434;-81
2021/01/02 12:57:56;;;;;;;26.03;14.90;;;6.50;99.90;;;;;;4996307;28;20462;-72
2021/01/02 13:00:22;;;;;;;23.60;16.13;;;6.60;99.90;;;;;;4997039;28;20919;-73
2021/01/02 13:06:17;;;;;;;25.13;14.77;;;6.70;99.90;;;;;;4996211;28;20219;-77
2021/01/02 13:12:06;;;;;;;26.07;16.57;;;6.70;99.90;;;;;;4996209;28;20491;-76
2021/01/02 13:14:32;;;;;;;22.73;14.27;;;6.80;99.90;;;;;;4996053;28;20442;-77
2021/01/02 13:17:05;;;;;;;30.07;15.93;;;6.80;99.90;;;;;;4996250;28;20420;-77
2021/01/02 13:19:31;;;;;;;25.87;14.67;;;6.80;99.90;;;;;;4996392;28;20629;-75
2021/01/02 13:22:00;;;;;;;22.03;14.67;;;6.80;99.90;;;;;;4995799;28;20428;-76
2021/01/02 13:24:27;;;;;;;31.83;16.90;;;6.80;99.90;;;;;;4995241;28;20438;-76
2021/01/02 13:30:15;;;;;;;29.20;16.17;;;6.80;99.90;;;;;;4995989;28;20868;-83
2021/01/02 13:32:41;;;;;;;26.40;15.83;;;6.90;99.90;;;;;;4995601;28;20808;-76
2021/01/02 13:35:07;;;;;;;28.67;16.00;;;6.80;99.90;;;;;;4995890;28;20443;-77
2021/01/02 13:37:33;;;;;;;27.10;15.97;;;6.90;99.90;;;;;;4995635;28;20659;-81
2021/01/02 13:43:20;;;;;;;28.47;17.40;;;6.80;99.90;;;;;;4995466;28;20640;-76
2021/01/02 13:45:46;;;;;;;23.83;16.03;;;6.80;99.90;;;;;;4995397;28;20412;-76
2021/01/02 13:48:11;;;;;;;33.83;16.77;;;6.80;99.90;;;;;;4995270;28;20183;-76
2021/01/02 13:53:59;;;;;;;24.93;15.53;;;6.90;99.90;;;;;;4995430;28;20172;-77
2021/01/02 13:59:52;;;;;;;20.77;14.80;;;7.00;99.90;;;;;;4995256;28;20167;-77
2021/01/02 14:05:39;;;;;;;25.57;16.40;;;6.90;99.90;;;;;;4995097;28;20416;-77
2021/01/02 14:08:05;;;;;;;31.43;16.40;;;6.90;99.90;;;;;;4995026;28;20421;-78
2021/01/02 14:10:30;;;;;;;25.77;17.20;;;6.90;99.90;;;;;;4994927;28;20710;-78
2021/01/02 14:12:56;;;;;;;28.90;16.07;;;6.90;99.90;;;;;;4995022;28;20172;-78
2021/01/02 14:18:43;;;;;;;22.30;15.93;;;7.00;99.90;;;;;;4994836;28;20172;-77
2021/01/02 14:21:09;;;;;;;30.93;17.70;;;7.00;99.90;;;;;;4994933;28;20412;-78
2021/01/02 14:23:34;;;;;;;33.47;17.90;;;7.00;99.90;;;;;;4994945;28;20173;-77
2021/01/02 14:26:00;;;;;;;25.90;17.47;;;7.00;99.90;;;;;;4994479;28;20188;-77
2021/01/02 14:31:47;;;;;;;26.07;17.70;;;7.00;99.90;;;;;;4994307;28;20636;-76
2021/01/02 14:34:17;;;;;;;28.03;17.27;;;7.00;99.90;;;;;;4994670;28;20428;-76
2021/01/02 14:36:54;;;;;;;35.00;19.70;;;7.00;99.90;;;;;;4994273;28;20255;-79
2021/01/02 14:39:20;;;;;;;29.20;18.80;;;7.00;99.90;;;;;;4994462;28;20435;-75
2021/01/02 14:41:46;;;;;;;30.13;18.70;;;7.00;99.90;;;;;;4994461;28;20434;-75
2021/01/02 14:44:12;;;;;;;34.83;20.17;;;7.00;99.90;;;;;;4992887;28;20539;-80
2021/01/02 14:46:38;;;;;;;29.13;16.97;;;7.00;99.90;;;;;;4992813;28;20184;-77
2021/01/02 14:49:08;;;;;;;29.00;17.30;;;7.00;99.90;;;;;;4994123;28;20208;-72
2021/01/02 14:51:42;;;;;;;30.13;17.37;;;7.00;99.90;;;;;;4994118;28;20476;-79
2021/01/02 14:54:09;;;;;;;30.07;17.37;;;7.00;99.90;;;;;;4994514;28;20841;-75
2021/01/02 14:56:34;;;;;;;23.93;17.10;;;7.00;99.90;;;;;;4994551;28;20794;-84
2021/01/02 14:59:00;;;;;;;28.87;18.90;;;7.00;99.90;;;;;;4995067;28;20416;-79
2021/01/02 15:01:25;;;;;;;28.73;18.80;;;7.00;99.90;;;;;;4994262;28;20619;-81
2021/01/02 15:03:51;;;;;;;30.43;20.03;;;7.00;99.90;;;;;;4994393;28;20658;-81
2021/01/02 15:06:17;;;;;;;25.80;16.60;;;7.00;99.90;;;;;;4994120;28;20212;-79
2021/01/02 15:08:43;;;;;;;26.60;16.77;;;7.00;99.90;;;;;;4994062;28;20173;-85
2021/01/02 15:11:10;;;;;;;26.93;15.53;;;7.00;99.90;;;;;;4994008;28;20468;-85
2021/01/02 15:16:57;;;;;;;27.77;18.30;;;7.00;99.90;;;;;;4993927;28;20966;-83
2021/01/02 15:22:45;;;;;;;27.23;17.30;;;7.00;99.90;;;;;;4994031;28;20160;-86
2021/01/02 15:25:11;;;;;;;27.70;15.70;;;7.00;99.90;;;;;;4994202;28;20424;-81
2021/01/02 15:27:39;;;;;;;30.43;20.30;;;6.90;99.90;;;;;;4992729;28;20441;-83
2021/01/02 15:30:06;;;;;;;27.30;17.40;;;6.90;99.90;;;;;;4994079;28;20460;-85
2021/01/02 15:32:32;;;;;;;28.63;17.87;;;7.00;99.90;;;;;;4993831;28;20586;-76
2021/01/02 15:34:58;;;;;;;28.17;17.43;;;7.00;99.90;;;;;;4994215;28;20463;-86
2021/01/02 15:37:24;;;;;;;27.03;17.67;;;7.00;99.90;;;;;;4994326;28;20185;-83
2021/01/02 15:39:49;;;;;;;25.40;17.93;;;7.00;99.90;;;;;;4994286;28;20531;-83
2021/01/02 15:42:15;;;;;;;32.80;17.60;;;7.00;99.90;;;;;;4994012;28;20514;-80
2021/01/02 15:44:41;;;;;;;22.03;14.97;;;6.90;99.90;;;;;;4993994;28;20183;-80
2021/01/02 15:47:14;;;;;;;30.83;17.07;;;6.90;99.90;;;;;;4993675;28;20539;-79
2021/01/02 15:49:39;;;;;;;25.07;15.97;;;6.90;99.90;;;;;;4996829;28;20220;-77
2021/01/02 15:52:11;;;;;;;28.50;16.60;;;6.90;99.90;;;;;;4997858;28;20431;-77
2021/01/02 15:54:37;;;;;;;25.53;15.73;;;6.90;99.90;;;;;;4997808;28;20184;-84
2021/01/02 15:57:05;;;;;;;28.37;16.57;;;6.90;99.90;;;;;;4996184;28;20854;-82
2021/01/02 15:59:31;;;;;;;27.83;17.50;;;6.80;99.90;;;;;;4997417;28;20176;-80
2021/01/02 16:01:57;;;;;;;26.13;16.73;;;6.80;99.90;;;;;;4997952;28;20427;-79
2021/01/02 16:04:23;;;;;;;30.13;19.20;;;6.80;99.90;;;;;;4997354;28;20953;-85
2021/01/02 16:06:49;;;;;;;28.50;17.03;;;6.80;99.90;;;;;;4997463;28;20779;-87
2021/01/02 16:09:17;;;;;;;29.17;17.40;;;6.80;99.90;;;;;;4997159;28;20518;-81
2021/01/02 16:11:44;;;;;;;26.73;17.03;;;6.80;99.90;;;;;;4997311;28;20443;-78
2021/01/02 16:17:31;;;;;;;26.03;16.10;;;6.80;99.90;;;;;;4997017;28;20934;-72
2021/01/02 16:23:19;;;;;;;26.30;16.40;;;6.80;99.90;;;;;;4996913;28;20204;-76
2021/01/02 16:25:48;;;;;;;23.10;15.30;;;6.80;99.90;;;;;;4997157;28;20436;-81
2021/01/02 16:31:42;;;;;;;25.53;17.60;;;6.80;99.90;;;;;;4996748;28;20448;-75
2021/01/02 16:37:30;;;;;;;27.47;16.63;;;6.80;99.90;;;;;;4996667;28;21032;-79
2021/01/02 16:39:57;;;;;;;22.93;14.60;;;6.80;99.90;;;;;;4996508;28;20451;-76
2021/01/02 16:42:27;;;;;;;28.33;17.50;;;6.80;99.90;;;;;;4996577;28;20919;-75
2021/01/02 16:44:52;;;;;;;24.37;15.33;;;6.80;99.90;;;;;;4996466;28;20495;-84
2021/01/02 16:47:21;;;;;;;26.07;17.83;;;6.80;99.90;;;;;;4996910;28;20432;-83
2021/01/02 16:49:47;;;;;;;28.83;15.50;;;6.70;99.90;;;;;;4996688;28;20594;-81
2021/01/02 16:52:17;;;;;;;30.60;16.50;;;6.70;99.90;;;;;;4996573;28;20427;-79
2021/01/02 16:54:43;;;;;;;23.00;14.80;;;6.70;99.90;;;;;;4996876;28;20212;-77
2021/01/02 16:57:09;;;;;;;28.50;17.43;;;6.70;99.90;;;;;;4996676;28;20467;-78
2021/01/02 16:59:35;;;;;;;28.97;17.50;;;6.80;99.90;;;;;;4995800;28;20429;-79
2021/01/02 17:02:01;;;;;;;28.53;17.20;;;6.80;99.90;;;;;;4996443;28;20439;-72
2021/01/02 17:04:27;;;;;;;28.90;16.53;;;6.80;99.90;;;;;;4996353;28;20511;-84
2021/01/02 17:07:01;;;;;;;33.90;18.23;;;6.80;99.90;;;;;;4996265;28;20177;-79
2021/01/02 17:09:27;;;;;;;30.13;20.17;;;6.80;99.90;;;;;;4996157;28;20432;-82
2021/01/02 17:11:58;;;;;;;35.67;20.90;;;6.80;99.90;;;;;;4996228;28;20959;-81
2021/01/02 17:14:24;;;;;;;30.20;19.40;;;6.80;99.90;;;;;;4996195;28;20176;-82
2021/01/02 17:16:50;;;;;;;34.83;20.80;;;6.80;99.90;;;;;;4996195;28;20427;-84
2021/01/02 17:19:15;;;;;;;31.63;20.70;;;6.80;99.90;;;;;;4996214;28;20424;-80
2021/01/02 17:21:47;;;;;;;32.70;20.00;;;6.80;99.90;;;;;;4996087;28;20732;-82
2021/01/02 17:24:12;;;;;;;35.47;20.33;;;6.80;99.90;;;;;;4995825;28;20528;-74
2021/01/02 17:26:39;;;;;;;30.23;20.33;;;6.70;99.90;;;;;;4995988;28;20432;-81
2021/01/02 17:29:07;;;;;;;29.50;18.73;;;6.70;99.90;;;;;;4995872;28;20181;-80
2021/01/02 17:31:38;;;;;;;35.30;21.50;;;6.70;99.90;;;;;;4995515;28;20479;-79
2021/01/02 17:34:06;;;;;;;34.33;20.83;;;6.70;99.90;;;;;;4995370;28;20476;-80
2021/01/02 17:36:33;;;;;;;32.10;21.27;;;6.80;99.90;;;;;;4995799;28;20441;-81
2021/01/02 17:38:59;;;;;;;40.20;22.80;;;6.80;99.90;;;;;;4995454;28;20508;-84
2021/01/02 17:41:27;;;;;;;36.83;22.10;;;6.80;99.90;;;;;;4995607;28;20512;-82
2021/01/02 17:43:53;;;;;;;33.53;19.87;;;6.80;99.90;;;;;;4995689;28;20543;-78
2021/01/02 17:49:41;;;;;;;34.80;21.00;;;6.80;99.90;;;;;;4995328;28;20683;-81
2021/01/02 17:52:07;;;;;;;34.23;19.90;;;6.80;99.90;;;;;;4995530;28;20497;-81
2021/01/02 17:54:33;;;;;;;33.17;19.57;;;6.80;99.90;;;;;;4995232;28;20531;-84
2021/01/02 17:56:58;;;;;;;35.93;21.23;;;6.80;99.90;;;;;;4995465;28;20915;-80
2021/01/02 17:59:24;;;;;;;39.07;22.57;;;6.80;99.90;;;;;;4995476;28;20176;-78
2021/01/02 18:01:54;;;;;;;34.90;21.17;;;6.80;99.90;;;;;;4995339;28;20184;-78
2021/01/02 18:04:20;;;;;;;36.30;21.30;;;6.80;99.90;;;;;;4995092;28;20436;-79
2021/01/02 18:06:46;;;;;;;40.37;23.13;;;6.80;99.90;;;;;;4995210;28;20467;-78
2021/01/02 18:09:12;;;;;;;37.67;21.33;;;6.80;99.90;;;;;;4994970;28;20505;-79
2021/01/02 18:11:40;;;;;;;37.93;22.30;;;6.80;99.90;;;;;;4994191;28;20483;-79
2021/01/02 18:14:19;;;;;;;35.93;22.33;;;6.80;99.90;;;;;;4995218;28;20606;-79
2021/01/02 18:16:51;;;;;;;37.20;22.63;;;6.70;99.90;;;;;;4995121;28;20431;-80
2021/01/02 18:22:38;;;;;;;36.63;22.43;;;6.80;99.90;;;;;;4994788;28;20514;-79
2021/01/02 18:25:04;;;;;;;37.30;24.10;;;6.70;99.90;;;;;;4994662;28;20448;-81
2021/01/02 18:30:52;;;;;;;42.63;28.47;;;6.70;99.90;;;;;;4994678;28;20526;-77
2021/01/02 18:36:58;;;;;;;42.73;23.77;;;6.60;99.90;;;;;;4994792;28;20291;-74
2021/01/02 18:42:46;;;;;;;37.90;24.13;;;6.60;99.90;;;;;;4994213;28;20407;-72
2021/01/02 18:45:12;;;;;;;44.60;23.87;;;6.60;99.90;;;;;;4994488;28;20430;-72
2021/01/02 18:47:37;;;;;;;38.43;24.10;;;6.60;99.90;;;;;;4994286;28;20228;-72
2021/01/02 18:53:25;;;;;;;42.83;24.83;;;6.60;99.90;;;;;;4994240;28;20172;-72
2021/01/02 18:55:51;;;;;;;44.13;25.70;;;6.60;99.90;;;;;;4994462;28;20415;-77
2021/01/02 18:58:16;;;;;;;44.10;27.40;;;6.60;99.90;;;;;;4994479;28;20180;-78
2021/01/02 19:04:04;;;;;;;41.43;26.70;;;6.60;99.90;;;;;;4993687;28;20171;-75
2021/01/02 19:06:29;;;;;;;54.20;31.40;;;6.60;99.90;;;;;;4993863;28;20432;-76
2021/01/02 19:12:17;;;;;;;47.73;25.43;;;6.60;99.90;;;;;;4994380;28;20181;-75
2021/01/02 19:14:47;;;;;;;44.97;26.37;;;6.60;99.90;;;;;;4993932;28;20428;-76
2021/01/02 19:17:15;;;;;;;55.20;28.60;;;6.60;99.90;;;;;;4994422;28;20625;-77
2021/01/02 19:23:03;;;;;;;43.90;28.63;;;6.60;99.90;;;;;;4996009;28;20453;-77
2021/01/02 19:28:51;;;;;;;45.40;27.30;;;6.60;99.90;;;;;;4998024;28;20156;-77
2021/01/02 19:31:28;;;;;;;46.57;30.30;;;6.60;99.90;;;;;;4998026;28;20943;-79
2021/01/02 19:33:54;;;;;;;55.40;31.70;;;6.50;99.90;;;;;;4997649;28;20718;-74
2021/01/02 19:36:36;;;;;;;58.57;31.90;;;6.50;99.90;;;;;;4998028;28;20522;-76
2021/01/02 19:39:08;;;;;;;46.90;28.43;;;6.50;99.90;;;;;;4997808;28;20474;-73
2021/01/02 19:44:56;;;;;;;35.90;22.07;;;6.50;99.90;;;;;;4997799;28;20466;-74
2021/01/02 19:47:25;;;;;;;34.83;22.40;;;6.50;99.90;;;;;;4997612;28;20918;-73
2021/01/02 19:49:51;;;;;;;38.17;23.63;;;6.50;99.90;;;;;;4997834;28;20197;-73
2021/01/02 19:52:18;;;;;;;38.73;22.10;;;6.50;99.90;;;;;;4997607;28;20447;-74
2021/01/02 19:54:45;;;;;;;36.97;23.00;;;6.50;99.90;;;;;;4997490;28;20574;-74
2021/01/02 19:57:13;;;;;;;34.50;22.23;;;6.50;99.90;;;;;;4997827;28;20759;-72
2021/01/02 20:03:02;;;;;;;35.20;21.77;;;6.50;99.90;;;;;;4997668;28;20518;-87
2021/01/02 20:05:27;;;;;;;38.80;22.53;;;6.50;99.90;;;;;;5004699;28;20752;-81